Česky Dansk Deutsch English Español Suomi Français Magyar Italiano Nederlands norsk Polski Português svenska Türkçe

 

Het Weer

Trabzon (Turkije)

01:20, 23 augustus 2016 (GMT)

NWNNE
WE
SWSSE
Home            
Trabzon Erzincan Erzurum Samsun / Carsamba Sivas Elazig Adler Tokat Kars Samsun Mus Tur-Afb Malatya / Erhac Merzifon Diyarbakir Batman Yerevan Van Muhrani Nalchik Kayseri / Erkilet Urfa Tbilisi Krasnodar

Om een weerknop op uw website of weblog te plaatsen, copieer onderstaande code en plak die in uw pagina. In het eerste vakje staat HTML-code, in het tweede vakje UBB-code.


Add to Google

Details

Wind speed:1 bf, 2 kn, 1.0 m/s, 2.3 miles/h, 3.7 km/h
Wind direction:Variable
Visibility:Greater than 10000 m, 10 km, 32800 ft, 6.2 miles
Clouds:Aufgelockert bewölkt at 3500 ft, 1067 m
Durchbrochene Bewölkung at 8000 ft, 2438 m
Temperature:26°C, 79°F
Gefühlte Temperatur:28°C, 82°F
Dew-point:22°C, 72°F
Atmospheric pressure:1010 hPa, 757.6 mmHg, 29.83 inHg, 0.997 atm
Relative humidity:78.7 %
METAR:LTCG 230120Z VRB02KT 9999 SCT035 BKN080 26/22 Q1010 NOSIG

Snelkoppelingen

Actuele weersinformatie van de hele wereld. Voeg locaties toe met het plus (+) symbool. Deze snelkoppelingen kunnen worden toegevoegd aan Google.

Lid van de Technetium groep

website free tracking
StatCounter NetStat W3C Validator

19-05-2022 05:56:27
astro.technetium.be money.technetium.be phote.technetium.be tafeltennistafel.technetium.be www.ligfiets.net